createdAt,value
2018-06-21T00:00:03.576Z,6.37
2018-06-21T00:00:37.547Z,6.50
2018-06-21T00:01:11.574Z,6.70
2018-06-21T00:01:45.684Z,6.83
2018-06-21T00:02:19.538Z,7.47
2018-06-21T00:02:53.175Z,7.08
2018-06-21T00:03:27.004Z,7.28
2018-06-21T00:04:00.914Z,6.55
2018-06-21T00:04:34.710Z,6.70
2018-06-21T00:05:08.616Z,6.25
2018-06-21T00:05:42.608Z,6.53
2018-06-21T00:06:16.699Z,6.60
2018-06-21T00:06:50.798Z,7.00
2018-06-21T00:07:24.452Z,6.60
2018-06-21T00:07:58.384Z,5.90
2018-06-21T00:08:32.477Z,5.80
2018-06-21T00:09:08.317Z,5.73
2018-06-21T00:09:43.141Z,5.70
2018-06-21T00:10:16.838Z,6.05
2018-06-21T00:10:50.643Z,5.92
2018-06-21T00:11:24.435Z,6.17
2018-06-21T00:11:58.270Z,5.97
2018-06-21T00:12:31.902Z,5.47
2018-06-21T00:13:05.771Z,5.75
2018-06-21T00:13:39.696Z,5.35
2018-06-21T00:14:13.424Z,5.47
2018-06-21T00:14:47.656Z,5.42
2018-06-21T00:15:21.680Z,5.85
2018-06-21T00:15:55.475Z,4.97
2018-06-21T00:16:29.878Z,5.72
2018-06-21T00:17:04.354Z,5.57
2018-06-21T00:17:38.704Z,5.17
2018-06-21T00:18:12.487Z,5.55
2018-06-21T00:18:47.936Z,5.28
2018-06-21T00:19:21.814Z,5.50
2018-06-21T00:19:55.532Z,5.25
2018-06-21T00:20:29.168Z,5.67
2018-06-21T00:21:03.792Z,5.10
2018-06-21T00:21:38.179Z,5.40
2018-06-21T00:22:12.102Z,5.05
2018-06-21T00:22:46.320Z,5.37
2018-06-21T00:23:19.984Z,4.50
2018-06-21T00:23:53.614Z,4.80
2018-06-21T00:24:27.579Z,5.00
2018-06-21T00:25:01.204Z,5.60
2018-06-21T00:25:35.778Z,5.65
2018-06-21T00:26:10.120Z,6.17
2018-06-21T00:26:44.431Z,6.20
2018-06-21T00:27:18.393Z,6.47
2018-06-21T00:27:52.040Z,5.92
2018-06-21T00:28:25.972Z,6.97
2018-06-21T00:28:59.769Z,8.18
2018-06-21T00:29:33.555Z,6.55
2018-06-21T00:30:07.656Z,6.95
2018-06-21T00:30:42.136Z,9.53
2018-06-21T00:31:16.400Z,7.60
2018-06-21T00:31:50.199Z,8.18
2018-06-21T00:32:24.271Z,9.25
2018-06-21T00:32:58.580Z,10.23
2018-06-21T00:33:32.474Z,9.18
2018-06-21T00:34:06.969Z,9.95
2018-06-21T00:34:41.377Z,8.20
2018-06-21T00:35:15.603Z,7.50
2018-06-21T00:35:49.583Z,7.40
2018-06-21T00:36:23.366Z,8.00
2018-06-21T00:36:57.465Z,8.56
2018-06-21T00:37:31.252Z,8.05
2018-06-21T00:38:05.057Z,8.20
2018-06-21T00:38:39.458Z,7.97
2018-06-21T00:39:13.872Z,7.80
2018-06-21T00:39:48.271Z,6.85
2018-06-21T00:40:22.682Z,6.40
2018-06-21T00:40:56.466Z,5.90
2018-06-21T00:41:30.781Z,6.08
2018-06-21T00:42:06.441Z,6.05
2018-06-21T00:42:40.219Z,5.47
2018-06-21T00:43:16.452Z,5.75
2018-06-21T00:43:56.824Z,5.03
2018-06-21T00:44:34.347Z,5.35
2018-06-21T00:45:10.477Z,5.47
2018-06-21T00:45:45.373Z,5.03
2018-06-21T00:46:19.574Z,4.87
2018-06-21T00:46:57.713Z,5.40
2018-06-21T00:47:35.944Z,5.10
2018-06-21T00:48:10.955Z,4.78
2018-06-21T00:48:48.748Z,4.83
2018-06-21T00:49:22.537Z,5.60
2018-06-21T00:49:58.175Z,5.30
2018-06-21T00:50:35.161Z,5.10
2018-06-21T00:51:10.368Z,4.97
2018-06-21T00:51:45.696Z,5.30
2018-06-21T00:52:22.153Z,5.30
2018-06-21T00:53:01.318Z,5.10
2018-06-21T00:53:37.014Z,5.78
2018-06-21T00:54:13.528Z,5.17
2018-06-21T00:54:48.171Z,5.12
2018-06-21T00:55:33.894Z,5.25
2018-06-21T00:56:17.011Z,5.17
2018-06-21T00:56:52.924Z,5.53
2018-06-21T00:57:28.350Z,5.37
2018-06-21T00:58:02.683Z,5.20
2018-06-21T00:58:36.733Z,5.22
2018-06-21T00:59:12.370Z,6.03
2018-06-21T00:59:47.893Z,5.40
2018-06-21T01:00:24.480Z,5.15
2018-06-21T01:01:00.506Z,5.05
2018-06-21T01:01:34.239Z,5.17
2018-06-21T01:02:07.883Z,5.08
2018-06-21T01:02:42.633Z,4.58
2018-06-21T01:03:16.966Z,5.08
2018-06-21T01:03:50.627Z,5.17
2018-06-21T01:04:24.489Z,4.95
2018-06-21T01:04:58.556Z,4.65
2018-06-21T01:05:34.223Z,5.92
2018-06-21T01:06:07.861Z,5.40
2018-06-21T01:06:41.563Z,5.55
2018-06-21T01:07:15.291Z,4.93
2018-06-21T01:07:49.013Z,5.30
2018-06-21T01:08:23.484Z,5.53
2018-06-21T01:08:57.843Z,5.30
2018-06-21T01:09:31.998Z,4.90
2018-06-21T01:10:05.865Z,5.40
2018-06-21T01:10:39.891Z,5.10
2018-06-21T01:11:13.624Z,5.60
2018-06-21T01:11:48.282Z,4.87
2018-06-21T01:12:22.669Z,5.55
2018-06-21T01:12:57.586Z,5.45
2018-06-21T01:13:31.929Z,5.05
2018-06-21T01:14:07.188Z,5.87
2018-06-21T01:14:40.976Z,5.35
2018-06-21T01:15:14.839Z,5.80
2018-06-21T01:15:48.634Z,5.80
2018-06-21T01:16:22.630Z,6.05
2018-06-21T01:16:57.207Z,5.70
2018-06-21T01:17:30.881Z,6.17
2018-06-21T01:18:04.488Z,6.62
2018-06-21T01:18:38.942Z,6.60
2018-06-21T01:19:12.588Z,6.77
2018-06-21T01:19:46.192Z,6.80
2018-06-21T01:20:19.737Z,6.97
2018-06-21T01:20:53.990Z,7.15
2018-06-21T01:21:27.552Z,7.10
2018-06-21T01:22:02.009Z,6.90
2018-06-21T01:22:35.600Z,7.35
2018-06-21T01:23:10.554Z,6.83
2018-06-21T01:23:44.995Z,7.58
2018-06-21T01:24:18.720Z,7.60
2018-06-21T01:24:51.979Z,7.42
2018-06-21T01:25:25.654Z,7.55
2018-06-21T01:25:58.899Z,8.23
2018-06-21T01:26:33.597Z,7.70
2018-06-21T01:27:07.218Z,8.47
2018-06-21T01:27:40.823Z,8.03
2018-06-21T01:28:16.097Z,7.70
2018-06-21T01:28:49.745Z,7.85
2018-06-21T01:29:23.832Z,8.48
2018-06-21T01:29:57.421Z,7.87
2018-06-21T01:30:31.630Z,8.58
2018-06-21T01:31:05.212Z,8.50
2018-06-21T01:31:38.798Z,7.87
2018-06-21T01:32:12.440Z,8.98
2018-06-21T01:32:46.438Z,8.70
2018-06-21T01:33:20.047Z,8.50
2018-06-21T01:33:53.737Z,8.45
2018-06-21T01:34:27.325Z,8.38
2018-06-21T01:35:00.991Z,8.58
2018-06-21T01:35:34.594Z,8.88
2018-06-21T01:36:09.249Z,8.95
2018-06-21T01:36:43.453Z,9.18
2018-06-21T01:37:17.076Z,8.45
2018-06-21T01:37:51.154Z,8.48
2018-06-21T01:38:24.736Z,8.55
2018-06-21T01:38:58.376Z,9.05
2018-06-21T01:39:31.933Z,8.65
2018-06-21T01:40:05.521Z,8.70
2018-06-21T01:40:39.171Z,8.85
2018-06-21T01:41:13.775Z,9.23
2018-06-21T01:41:48.073Z,8.50
2018-06-21T01:42:21.665Z,8.90
2018-06-21T01:42:55.392Z,8.70
2018-06-21T01:43:29.020Z,9.53
2018-06-21T01:44:02.754Z,8.55
2018-06-21T01:44:36.376Z,9.45
2018-06-21T01:45:09.989Z,10.03
2018-06-21T01:45:43.582Z,9.10
2018-06-21T01:46:18.074Z,9.23
2018-06-21T01:46:51.675Z,9.63
2018-06-21T01:47:26.015Z,9.03
2018-06-21T01:47:59.616Z,9.35
2018-06-21T01:48:34.209Z,8.85
2018-06-21T01:49:08.136Z,9.00
2018-06-21T01:49:42.412Z,8.38
2018-06-21T01:50:17.327Z,8.33
2018-06-21T01:50:50.985Z,8.80
2018-06-21T01:51:24.599Z,8.98
2018-06-21T01:51:59.269Z,8.30
2018-06-21T01:52:32.895Z,8.70
2018-06-21T01:53:07.180Z,8.47
2018-06-21T01:53:41.295Z,7.83
2018-06-21T01:54:14.929Z,8.35
2018-06-21T01:54:48.581Z,8.43
2018-06-21T01:55:22.196Z,7.87
2018-06-21T01:55:55.813Z,8.45
2018-06-21T01:56:29.484Z,7.92
2018-06-21T01:57:03.227Z,8.73
2018-06-21T01:57:36.873Z,8.18
2018-06-21T01:58:11.816Z,7.62
2018-06-21T01:58:45.353Z,7.92
2018-06-21T01:59:19.017Z,7.80
2018-06-21T01:59:53.031Z,8.25
2018-06-21T02:00:26.644Z,8.10
2018-06-21T02:01:01.539Z,8.10
2018-06-21T02:01:37.728Z,8.28
2018-06-21T02:02:13.525Z,8.30
2018-06-21T02:02:49.906Z,8.28
2018-06-21T02:03:23.574Z,7.75
2018-06-21T02:03:58.279Z,8.25
2018-06-21T02:04:33.885Z,8.03
2018-06-21T02:05:09.823Z,7.93
2018-06-21T02:05:46.137Z,7.97
2018-06-21T02:06:20.995Z,8.18
2018-06-21T02:06:54.693Z,8.60
2018-06-21T02:07:29.318Z,7.60
2018-06-21T02:08:05.963Z,8.68
2018-06-21T02:08:40.129Z,7.85
2018-06-21T02:09:16.633Z,8.17
2018-06-21T02:09:53.130Z,8.43
2018-06-21T02:10:30.689Z,7.28
2018-06-21T02:11:07.537Z,7.50
2018-06-21T02:11:44.532Z,7.60
2018-06-21T02:12:22.730Z,7.72
2018-06-21T02:13:03.264Z,8.03
2018-06-21T02:13:40.548Z,8.50
2018-06-21T02:14:15.767Z,8.38
2018-06-21T02:14:50.038Z,8.18
2018-06-21T02:15:25.709Z,7.42
2018-06-21T02:15:59.565Z,8.35
2018-06-21T02:16:33.141Z,7.95
2018-06-21T02:17:07.013Z,7.77
2018-06-21T02:17:40.937Z,8.00
2018-06-21T02:18:15.192Z,8.13
2018-06-21T02:18:49.583Z,7.87
2018-06-21T02:19:24.147Z,7.78
2018-06-21T02:19:57.757Z,7.62
2018-06-21T02:20:31.970Z,8.10
2018-06-21T02:21:05.755Z,7.80
2018-06-21T02:21:39.389Z,7.50
2018-06-21T02:22:13.909Z,7.97
2018-06-21T02:22:47.541Z,7.05
2018-06-21T02:23:21.416Z,7.47
2018-06-21T02:23:55.505Z,7.15
2018-06-21T02:24:29.081Z,7.47
2018-06-21T02:25:02.668Z,8.03
2018-06-21T02:25:36.255Z,7.28
2018-06-21T02:26:10.726Z,7.42
2018-06-21T02:26:44.324Z,7.95
2018-06-21T02:27:17.920Z,7.00
2018-06-21T02:27:51.492Z,6.95
2018-06-21T02:28:25.775Z,7.05
2018-06-21T02:28:59.384Z,7.92
2018-06-21T02:29:33.019Z,6.97
2018-06-21T02:30:06.786Z,7.58
2018-06-21T02:30:40.461Z,7.55
2018-06-21T02:31:14.059Z,7.60
2018-06-21T02:31:47.721Z,8.20
2018-06-21T02:32:21.411Z,6.85
2018-06-21T02:32:55.041Z,7.22
2018-06-21T02:33:28.645Z,7.08
2018-06-21T02:34:02.251Z,7.10
2018-06-21T02:34:36.829Z,7.55
2018-06-21T02:35:11.283Z,7.13
2018-06-21T02:35:45.081Z,7.62
2018-06-21T02:36:19.567Z,8.00
2018-06-21T02:36:53.273Z,7.35
2018-06-21T02:37:28.622Z,6.92
2018-06-21T02:38:02.283Z,7.72
2018-06-21T02:38:36.668Z,7.67
2018-06-21T02:39:12.721Z,7.03
2018-06-21T02:39:47.032Z,7.83
2018-06-21T02:40:21.106Z,7.78
2018-06-21T02:40:54.723Z,7.17
2018-06-21T02:41:31.125Z,7.58
2018-06-21T02:42:04.735Z,7.00
2018-06-21T02:42:40.926Z,7.70
2018-06-21T02:43:15.248Z,7.70
2018-06-21T02:43:49.660Z,7.35
2018-06-21T02:44:23.395Z,8.08
2018-06-21T02:44:57.042Z,6.74
2018-06-21T02:45:30.900Z,6.87
2018-06-21T02:46:04.219Z,7.65
2018-06-21T02:46:38.742Z,7.05
2018-06-21T02:47:13.118Z,7.20
2018-06-21T02:47:47.308Z,7.37
2018-06-21T02:48:21.001Z,7.45
2018-06-21T02:48:54.604Z,7.17
2018-06-21T02:49:28.533Z,7.35
2018-06-21T02:50:02.092Z,6.83
2018-06-21T02:50:37.757Z,6.70
2018-06-21T02:51:13.359Z,6.47
2018-06-21T02:51:47.078Z,7.03
2018-06-21T02:52:25.450Z,6.53
2018-06-21T02:53:01.474Z,7.03
2018-06-21T02:53:36.209Z,6.25
2018-06-21T02:54:09.754Z,6.87
2018-06-21T02:54:44.757Z,6.70
2018-06-21T02:55:18.380Z,6.83
2018-06-21T02:55:52.861Z,6.80
2018-06-21T02:56:26.509Z,7.12
2018-06-21T02:57:00.170Z,6.53
2018-06-21T02:57:33.733Z,6.72
2018-06-21T02:58:08.466Z,6.10
2018-06-21T02:58:41.733Z,6.08
2018-06-21T02:59:15.358Z,6.67
2018-06-21T02:59:48.941Z,6.30
2018-06-21T03:00:23.258Z,6.70
2018-06-21T03:00:57.103Z,7.02
2018-06-21T03:01:30.663Z,6.58
2018-06-21T03:02:04.359Z,6.25
2018-06-21T03:02:37.874Z,6.62
2018-06-21T03:03:11.489Z,6.73
2018-06-21T03:03:45.626Z,6.90
2018-06-21T03:04:19.256Z,6.35
2018-06-21T03:04:52.869Z,7.25
2018-06-21T03:05:26.454Z,7.12
2018-06-21T03:06:01.438Z,6.97
2018-06-21T03:06:35.083Z,7.37
2018-06-21T03:07:09.134Z,7.43
2018-06-21T03:07:42.701Z,7.35
2018-06-21T03:08:16.303Z,7.00
2018-06-21T03:08:49.937Z,6.97
2018-06-21T03:09:24.115Z,7.33
2018-06-21T03:09:57.672Z,6.75
2018-06-21T03:10:31.853Z,7.30
2018-06-21T03:11:05.393Z,7.20
2018-06-21T03:11:39.465Z,6.83
2018-06-21T03:12:18.309Z,6.83
2018-06-21T03:12:51.985Z,6.67
2018-06-21T03:13:25.589Z,7.55
2018-06-21T03:13:59.228Z,6.50
2018-06-21T03:14:32.889Z,6.95
2018-06-21T03:15:06.793Z,6.83
2018-06-21T03:15:40.385Z,7.67
2018-06-21T03:16:14.719Z,7.70
2018-06-21T03:16:48.296Z,7.10
2018-06-21T03:17:22.260Z,7.40
2018-06-21T03:17:55.810Z,7.75
2018-06-21T03:18:29.406Z,7.35
2018-06-21T03:19:02.953Z,7.40
2018-06-21T03:19:36.571Z,7.67
2018-06-21T03:20:10.210Z,7.53
2018-06-21T03:20:43.866Z,7.12
2018-06-21T03:21:17.453Z,8.20
2018-06-21T03:21:51.042Z,7.40
2018-06-21T03:22:24.617Z,7.53
2018-06-21T03:22:57.830Z,6.85
2018-06-21T03:23:31.422Z,7.37
2018-06-21T03:24:05.140Z,7.08
2018-06-21T03:24:39.245Z,7.78
2018-06-21T03:25:12.859Z,7.97
2018-06-21T03:25:46.414Z,7.55
2018-06-21T03:26:20.015Z,8.05
2018-06-21T03:26:53.583Z,7.33
2018-06-21T03:27:27.224Z,7.37
2018-06-21T03:28:00.852Z,7.60
2018-06-21T03:28:34.454Z,7.62
2018-06-21T03:29:08.078Z,7.43
2018-06-21T03:29:41.765Z,7.83
2018-06-21T03:30:15.077Z,7.72
2018-06-21T03:30:48.667Z,7.97
2018-06-21T03:31:22.520Z,7.45
2018-06-21T03:31:55.795Z,7.47
2018-06-21T03:32:29.412Z,7.30
2018-06-21T03:33:03.035Z,7.40
2018-06-21T03:33:36.655Z,7.95
2018-06-21T03:34:10.277Z,7.75
2018-06-21T03:34:44.261Z,7.35
2018-06-21T03:35:18.069Z,7.70
2018-06-21T03:35:51.632Z,7.55
2018-06-21T03:36:25.224Z,7.78
2018-06-21T03:36:58.817Z,7.58
2018-06-21T03:37:32.436Z,7.15
2018-06-21T03:38:06.286Z,7.45
2018-06-21T03:38:39.881Z,7.33
2018-06-21T03:39:13.687Z,6.90
2018-06-21T03:39:47.907Z,7.45
2018-06-21T03:40:22.179Z,7.33
2018-06-21T03:40:56.881Z,7.40
2018-06-21T03:41:30.774Z,7.47
2018-06-21T03:42:04.556Z,7.45
2018-06-21T03:42:38.733Z,7.35
2018-06-21T03:43:12.374Z,7.40
2018-06-21T03:43:45.964Z,7.75
2018-06-21T03:44:19.568Z,7.37
2018-06-21T03:44:53.840Z,7.55
2018-06-21T03:45:27.901Z,7.35
2018-06-21T03:46:01.536Z,7.53
2018-06-21T03:46:35.107Z,7.40
2018-06-21T03:47:08.716Z,7.37
2018-06-21T03:47:42.231Z,7.50
2018-06-21T03:48:15.852Z,7.35
2018-06-21T03:48:49.498Z,7.75
2018-06-21T03:49:23.128Z,7.97
2018-06-21T03:49:56.820Z,7.08
2018-06-21T03:50:30.475Z,7.65
2018-06-21T03:51:05.532Z,7.60
2018-06-21T03:51:39.091Z,7.47
2018-06-21T03:52:12.658Z,7.50
2018-06-21T03:52:46.228Z,7.10
2018-06-21T03:53:19.846Z,7.30
2018-06-21T03:53:53.474Z,7.17
2018-06-21T03:54:27.367Z,6.90
2018-06-21T03:55:00.997Z,7.58
2018-06-21T03:55:34.524Z,6.87
2018-06-21T03:56:08.075Z,7.80
2018-06-21T03:56:41.749Z,7.53
2018-06-21T03:57:16.013Z,7.00
2018-06-21T03:57:49.639Z,7.37
2018-06-21T03:58:23.288Z,6.85
2018-06-21T03:58:56.937Z,7.05
2018-06-21T03:59:31.124Z,6.78
2018-06-21T04:00:04.989Z,6.87
2018-06-21T04:00:38.592Z,7.25
2018-06-21T04:01:12.124Z,7.20
2018-06-21T04:01:45.744Z,7.03
2018-06-21T04:02:19.437Z,7.55
2018-06-21T04:02:53.017Z,7.53
2018-06-21T04:03:26.597Z,6.33
2018-06-21T04:04:00.865Z,6.85
2018-06-21T04:04:34.531Z,6.53
2018-06-21T04:05:08.137Z,7.00
2018-06-21T04:05:41.712Z,7.45
2018-06-21T04:06:15.960Z,7.37
2018-06-21T04:06:49.519Z,6.65
2018-06-21T04:07:23.161Z,6.67
2018-06-21T04:07:57.349Z,6.80
2018-06-21T04:08:30.918Z,6.75
2018-06-21T04:09:06.462Z,6.40
2018-06-21T04:09:40.289Z,6.83
2018-06-21T04:10:13.880Z,6.58
2018-06-21T04:10:48.108Z,7.03
2018-06-21T04:11:21.665Z,6.87
2018-06-21T04:11:55.257Z,6.12
2018-06-21T04:12:29.775Z,7.30
2018-06-21T04:13:03.762Z,6.70
2018-06-21T04:13:37.317Z,6.58
2018-06-21T04:14:10.945Z,6.78
2018-06-21T04:14:45.124Z,6.75
2018-06-21T04:15:18.771Z,6.83
2018-06-21T04:15:52.993Z,6.70
2018-06-21T04:16:26.634Z,7.25
2018-06-21T04:17:00.256Z,6.35
2018-06-21T04:17:33.958Z,6.72
2018-06-21T04:18:07.677Z,7.75
2018-06-21T04:18:41.284Z,7.42
2018-06-21T04:19:15.457Z,7.27
2018-06-21T04:19:49.069Z,7.08
2018-06-21T04:20:22.746Z,7.30
2018-06-21T04:20:57.189Z,6.50
2018-06-21T04:21:30.784Z,7.47
2018-06-21T04:22:04.441Z,7.60
2018-06-21T04:22:38.003Z,7.20
2018-06-21T04:23:11.605Z,7.33
2018-06-21T04:23:45.225Z,7.75
2018-06-21T04:24:18.486Z,6.80
2018-06-21T04:24:52.097Z,6.62
2018-06-21T04:25:25.689Z,6.90
2018-06-21T04:25:59.694Z,7.35
2018-06-21T04:26:33.315Z,6.85
2018-06-21T04:27:07.416Z,7.33
2018-06-21T04:27:41.705Z,7.03
2018-06-21T04:28:15.252Z,7.50
2018-06-21T04:28:48.481Z,7.20
2018-06-21T04:29:22.725Z,6.75
2018-06-21T04:29:56.316Z,6.97
2018-06-21T04:30:30.067Z,6.78
2018-06-21T04:31:03.745Z,6.93
2018-06-21T04:31:37.592Z,6.80
2018-06-21T04:32:11.247Z,6.75
2018-06-21T04:32:44.805Z,6.60
2018-06-21T04:33:18.367Z,7.17
2018-06-21T04:33:52.679Z,6.95
2018-06-21T04:34:26.285Z,6.28
2018-06-21T04:34:59.888Z,6.90
2018-06-21T04:35:33.481Z,6.78
2018-06-21T04:36:07.236Z,6.95
2018-06-21T04:36:40.874Z,6.50
2018-06-21T04:37:14.517Z,6.70
2018-06-21T04:37:48.105Z,6.62
2018-06-21T04:38:21.789Z,6.75
2018-06-21T04:38:55.345Z,6.90
2018-06-21T04:39:28.933Z,6.58
2018-06-21T04:40:02.514Z,6.50
2018-06-21T04:40:36.110Z,6.80
2018-06-21T04:41:09.696Z,6.80
2018-06-21T04:41:43.312Z,6.85
2018-06-21T04:42:16.867Z,5.80
2018-06-21T04:42:50.488Z,7.00
2018-06-21T04:43:24.138Z,7.28
2018-06-21T04:43:57.732Z,7.17
2018-06-21T04:44:31.279Z,6.92
2018-06-21T04:45:05.313Z,7.30
2018-06-21T04:45:40.276Z,6.87
2018-06-21T04:46:13.848Z,6.75
2018-06-21T04:46:47.465Z,6.90
2018-06-21T04:47:21.112Z,6.35
2018-06-21T04:47:54.330Z,6.62
2018-06-21T04:48:27.939Z,6.90
2018-06-21T04:49:01.782Z,6.53
2018-06-21T04:49:35.339Z,6.72
2018-06-21T04:50:09.189Z,6.65
2018-06-21T04:50:43.268Z,7.00
2018-06-21T04:51:16.521Z,6.85
2018-06-21T04:51:50.166Z,6.70
2018-06-21T04:52:23.780Z,7.22
2018-06-21T04:52:58.026Z,6.72
2018-06-21T04:53:31.632Z,7.30
2018-06-21T04:54:05.987Z,7.03
2018-06-21T04:54:40.568Z,6.53
2018-06-21T04:55:14.659Z,6.92
2018-06-21T04:55:48.289Z,6.85
2018-06-21T04:56:21.936Z,6.92
2018-06-21T04:56:56.211Z,6.92
2018-06-21T04:57:30.462Z,7.50
2018-06-21T04:58:04.053Z,7.15
2018-06-21T04:58:37.682Z,7.42
2018-06-21T04:59:11.337Z,8.03
2018-06-21T04:59:44.927Z,7.60
2018-06-21T05:00:18.545Z,7.60
2018-06-21T05:00:52.155Z,7.85
2018-06-21T05:01:25.824Z,7.87
2018-06-21T05:02:00.668Z,7.90
2018-06-21T05:02:34.311Z,7.17
2018-06-21T05:03:07.943Z,8.00
2018-06-21T05:03:41.552Z,9.50
2018-06-21T05:04:15.673Z,9.90
2018-06-21T05:04:49.619Z,10.43
2018-06-21T05:05:23.229Z,11.05
2018-06-21T05:05:56.902Z,10.80
2018-06-21T05:06:30.489Z,10.95
2018-06-21T05:07:04.893Z,12.05
2018-06-21T05:07:38.522Z,11.65
2018-06-21T05:08:12.117Z,11.48
2018-06-21T05:08:45.782Z,11.60
2018-06-21T05:09:20.068Z,11.85
2018-06-21T05:09:54.212Z,12.95
2018-06-21T05:10:27.844Z,13.50
2018-06-21T05:11:01.140Z,14.00
2018-06-21T05:11:34.745Z,14.70
2018-06-21T05:12:08.315Z,14.80
2018-06-21T05:12:42.372Z,13.28
2018-06-21T05:13:16.630Z,14.33
2018-06-21T05:13:50.204Z,15.00
2018-06-21T05:14:23.912Z,14.28
2018-06-21T05:14:57.511Z,14.30
2018-06-21T05:15:31.151Z,15.23
2018-06-21T05:16:04.749Z,14.60
2018-06-21T05:16:38.388Z,15.10
2018-06-21T05:17:12.012Z,14.83
2018-06-21T05:17:45.580Z,16.02
2018-06-21T05:18:19.318Z,16.35
2018-06-21T05:18:52.917Z,16.02
2018-06-21T05:19:26.536Z,16.12
2018-06-21T05:20:00.135Z,16.32
2018-06-21T05:20:33.684Z,16.30
2018-06-21T05:21:07.298Z,15.88
2018-06-21T05:21:42.468Z,16.57
2018-06-21T05:22:16.118Z,17.15
2018-06-21T05:22:49.719Z,16.65
2018-06-21T05:23:23.481Z,17.07
2018-06-21T05:23:57.872Z,17.30
2018-06-21T05:24:31.701Z,17.12
2018-06-21T05:25:05.835Z,17.77
2018-06-21T05:25:40.009Z,17.65
2018-06-21T05:26:13.575Z,16.17
2018-06-21T05:26:47.708Z,16.97
2018-06-21T05:27:21.314Z,16.67
2018-06-21T05:27:54.552Z,17.30
2018-06-21T05:28:28.182Z,17.45
2018-06-21T05:29:02.312Z,17.00
2018-06-21T05:29:35.858Z,16.52
2018-06-21T05:30:09.416Z,16.77
2018-06-21T05:30:43.015Z,17.30
2018-06-21T05:31:17.846Z,16.82
2018-06-21T05:31:51.379Z,17.57
2018-06-21T05:32:25.300Z,18.82
2018-06-21T05:32:58.882Z,17.87
2018-06-21T05:33:32.980Z,17.80
2018-06-21T05:34:07.220Z,17.85
2018-06-21T05:34:40.791Z,18.23
2018-06-21T05:35:15.155Z,18.17
2018-06-21T05:35:49.569Z,17.92
2018-06-21T05:36:23.118Z,18.07
2018-06-21T05:36:57.244Z,18.32
2018-06-21T05:37:31.457Z,18.57
2018-06-21T05:38:05.054Z,18.82
2018-06-21T05:38:40.837Z,19.27
2018-06-21T05:39:14.011Z,20.47
2018-06-21T05:39:48.840Z,18.87
2018-06-21T05:40:33.629Z,18.82
2018-06-21T05:41:07.210Z,17.73
2018-06-21T05:41:41.424Z,18.37
2018-06-21T05:42:14.976Z,18.73
2018-06-21T05:42:48.540Z,18.77
2018-06-21T05:43:22.143Z,19.80
2018-06-21T05:43:55.719Z,18.90
2018-06-21T05:44:30.641Z,20.88
2018-06-21T05:45:04.210Z,20.73
2018-06-21T05:45:37.847Z,20.52
2018-06-21T05:46:11.402Z,21.07
2018-06-21T05:46:45.885Z,20.72
2018-06-21T05:47:20.120Z,21.05
2018-06-21T05:47:53.654Z,20.90
2018-06-21T05:48:27.904Z,20.70
2018-06-21T05:49:01.137Z,20.57
2018-06-21T05:49:34.718Z,21.55
2018-06-21T05:50:09.183Z,21.62
2018-06-21T05:50:42.823Z,20.57
2018-06-21T05:51:17.087Z,20.77
2018-06-21T05:51:50.619Z,20.90
2018-06-21T05:52:24.247Z,21.50
2018-06-21T05:52:58.626Z,21.87
2018-06-21T05:53:32.151Z,21.75
2018-06-21T05:54:05.932Z,21.48
2018-06-21T05:54:40.959Z,20.05
2018-06-21T05:55:14.560Z,21.23
2018-06-21T05:55:48.155Z,21.70
2018-06-21T05:56:22.165Z,21.30
2018-06-21T05:56:56.495Z,20.88
2018-06-21T05:57:30.063Z,21.35
2018-06-21T05:58:03.656Z,20.60
2018-06-21T05:58:37.247Z,21.75
2018-06-21T05:59:10.844Z,19.57
2018-06-21T05:59:44.428Z,21.02
2018-06-21T06:00:18.064Z,21.37
2018-06-21T06:00:52.272Z,20.27
2018-06-21T06:01:25.492Z,20.77
2018-06-21T06:01:59.161Z,21.00
2018-06-21T06:02:32.686Z,20.97
2018-06-21T06:03:06.287Z,20.87
2018-06-21T06:03:39.856Z,22.00
2018-06-21T06:04:13.430Z,21.20
2018-06-21T06:04:47.544Z,20.25
2018-06-21T06:05:21.484Z,21.33
2018-06-21T06:05:55.056Z,20.70
2018-06-21T06:06:28.739Z,21.10
2018-06-21T06:07:02.318Z,20.43
2018-06-21T06:07:36.855Z,20.57
2018-06-21T06:08:10.156Z,21.35
2018-06-21T06:08:43.688Z,20.60
2018-06-21T06:09:17.259Z,20.12
2018-06-21T06:09:50.849Z,20.27
2018-06-21T06:10:24.407Z,20.10
2018-06-21T06:10:57.971Z,20.37
2018-06-21T06:11:31.516Z,20.10
2018-06-21T06:12:06.628Z,20.80
2018-06-21T06:12:40.444Z,20.50
2018-06-21T06:13:14.124Z,20.03
2018-06-21T06:13:48.879Z,19.67
2018-06-21T06:14:22.115Z,18.37
2018-06-21T06:14:55.676Z,19.10
2018-06-21T06:15:29.204Z,19.57
2018-06-21T06:16:02.746Z,19.92
2018-06-21T06:16:37.246Z,18.65
2018-06-21T06:17:10.756Z,18.67
2018-06-21T06:17:44.384Z,18.37
2018-06-21T06:18:17.972Z,18.90
2018-06-21T06:18:52.164Z,19.05
2018-06-21T06:19:25.788Z,19.32
2018-06-21T06:20:00.399Z,18.30
2018-06-21T06:20:33.919Z,19.10
2018-06-21T06:21:08.281Z,17.80
2018-06-21T06:21:42.414Z,18.40
2018-06-21T06:22:16.299Z,17.35
2018-06-21T06:22:49.868Z,16.90
2018-06-21T06:23:23.944Z,18.15
2018-06-21T06:23:57.456Z,17.40
2018-06-21T06:24:31.030Z,16.62
2018-06-21T06:25:04.655Z,16.93
2018-06-21T06:25:38.195Z,17.02
2018-06-21T06:26:12.032Z,16.95
2018-06-21T06:26:46.334Z,16.52
2018-06-21T06:27:19.892Z,16.25
2018-06-21T06:27:53.579Z,16.70
2018-06-21T06:28:27.173Z,15.32
2018-06-21T06:29:00.334Z,15.90
2018-06-21T06:29:33.913Z,16.93
2018-06-21T06:30:08.220Z,17.10
2018-06-21T06:30:42.419Z,16.05
2018-06-21T06:31:15.954Z,16.47
2018-06-21T06:31:50.284Z,16.02
2018-06-21T06:32:24.443Z,15.90
2018-06-21T06:32:58.533Z,15.18
2018-06-21T06:33:32.083Z,15.23
2018-06-21T06:34:05.729Z,15.95
2018-06-21T06:34:40.712Z,15.45
2018-06-21T06:35:14.991Z,15.23
2018-06-21T06:35:48.592Z,15.00
2018-06-21T06:36:22.816Z,14.30
2018-06-21T06:36:57.007Z,14.00
2018-06-21T06:37:31.113Z,14.80
2018-06-21T06:38:04.721Z,14.40
2018-06-21T06:38:38.274Z,13.60
2018-06-21T06:39:18.031Z,13.97
2018-06-21T06:39:52.180Z,14.05
2018-06-21T06:40:26.657Z,14.20
2018-06-21T06:41:00.636Z,13.25
2018-06-21T06:41:35.110Z,13.43
2018-06-21T06:42:08.752Z,13.78
2018-06-21T06:42:42.788Z,13.53
2018-06-21T06:43:16.344Z,13.80
2018-06-21T06:43:49.898Z,13.95
2018-06-21T06:44:23.479Z,14.07
2018-06-21T06:44:57.273Z,12.82
2018-06-21T06:45:30.894Z,13.10
2018-06-21T06:46:05.605Z,13.43
2018-06-21T06:46:39.180Z,12.30
2018-06-21T06:47:12.759Z,11.77
2018-06-21T06:47:46.348Z,13.38
2018-06-21T06:48:19.938Z,12.47
2018-06-21T06:48:53.835Z,12.28
2018-06-21T06:49:28.748Z,11.38
2018-06-21T06:50:02.331Z,12.28
2018-06-21T06:50:35.575Z,11.80
2018-06-21T06:51:09.309Z,12.00
2018-06-21T06:51:42.527Z,11.85
2018-06-21T06:52:16.089Z,11.78
2018-06-21T06:52:50.323Z,12.00
2018-06-21T06:53:23.938Z,12.53
2018-06-21T06:53:57.488Z,12.43
2018-06-21T06:54:31.075Z,12.03
2018-06-21T06:55:04.683Z,12.17
2018-06-21T06:55:38.202Z,12.47
2018-06-21T06:56:11.751Z,11.73
2018-06-21T06:56:46.178Z,12.50
2018-06-21T06:57:19.884Z,11.85
2018-06-21T06:57:53.492Z,12.90
2018-06-21T06:58:27.711Z,13.05
2018-06-21T06:59:01.600Z,12.68
2018-06-21T06:59:35.307Z,12.18
2018-06-21T07:00:10.287Z,12.60
2018-06-21T07:00:43.576Z,12.05
2018-06-21T07:01:17.750Z,11.50
2018-06-21T07:01:51.356Z,11.30
2018-06-21T07:02:24.885Z,12.00
2018-06-21T07:02:58.417Z,12.05
2018-06-21T07:03:32.084Z,12.35
2018-06-21T07:04:06.432Z,11.28
2018-06-21T07:04:40.025Z,12.20
2018-06-21T07:05:13.196Z,11.08
2018-06-21T07:05:46.703Z,11.75
2018-06-21T07:06:20.254Z,11.12
2018-06-21T07:06:53.825Z,11.73
2018-06-21T07:07:27.400Z,10.80
2018-06-21T07:08:01.467Z,11.38
2018-06-21T07:08:35.142Z,10.70
2018-06-21T07:09:09.461Z,11.47
2018-06-21T07:09:43.035Z,10.93
2018-06-21T07:10:18.119Z,11.95
2018-06-21T07:10:52.186Z,11.08
2018-06-21T07:11:26.734Z,10.80
2018-06-21T07:12:00.332Z,11.43
2018-06-21T07:12:34.532Z,11.08
2018-06-21T07:13:08.088Z,11.13
2018-06-21T07:13:42.143Z,11.08
2018-06-21T07:14:15.705Z,11.57
2018-06-21T07:14:49.234Z,11.10
2018-06-21T07:15:22.848Z,10.80
2018-06-21T07:15:57.027Z,10.93
2018-06-21T07:16:31.528Z,11.38
2018-06-21T07:17:05.215Z,11.20
2018-06-21T07:17:39.133Z,11.10
2018-06-21T07:18:13.954Z,11.20
2018-06-21T07:18:47.531Z,10.53
2018-06-21T07:19:21.051Z,10.90
2018-06-21T07:19:54.813Z,10.90
2018-06-21T07:20:28.420Z,10.82
2018-06-21T07:21:01.957Z,10.32
2018-06-21T07:21:38.756Z,10.53
2018-06-21T07:22:12.327Z,10.88
2018-06-21T07:22:46.706Z,10.45
2018-06-21T07:23:20.323Z,10.98
2018-06-21T07:23:53.942Z,10.65
2018-06-21T07:24:27.479Z,10.15
2018-06-21T07:25:01.056Z,10.80
2018-06-21T07:25:35.315Z,10.13
2018-06-21T07:26:08.953Z,10.82
2018-06-21T07:26:42.618Z,11.10
2018-06-21T07:27:17.709Z,10.77
2018-06-21T07:27:52.032Z,10.48
2018-06-21T07:28:26.350Z,10.82